Sete Lagoas, Brazil
Current Conditions -  °F | °C
As of 8:00 AM on Wednesday 26 Nov 2014 (Local Time) from SBLS Reporting Station
Light Rain Light Rain  
Wind Chill: 68°   Ceiling: 500
Heat Index: 68°   Visibility: 0.93mi
Dew Point: 66°   Wind: 2mph
Humidity: 94%   Direction: 40°NE
Pressure: 30"   Gusts: NA
Location:  19.45°S, 44.25°W
Report Text: SBLS 261000Z 04002KT 1500 -RA BR BKN005 BKN020 OVC070 20/19 Q1016
Loading
Personal Weather Stations






























Interactive Weather Map New forecast layout! Learn more

10-Day Weather Forecast

Advertisements
Track Severe Weather on mobile